Time;durP1;ratioP1;P1;durP2;ratioP2;P2;SDS_P1;SDS_P2;PMS_P1;PMS_P2;Temp;Humidity;BMP_temperature;BMP_pressure;BME280_temperature;BME280_humidity;BME280_pressure;Samples;Min_cycle;Max_cycle;Signal;HPM_P1;HPM_P2
2022/06/18 00:01:34;;;;;;;72.22;51.67;;;27.20;99.90;;;;;;5072654;28;20027;-65
2022/06/18 00:04:06;;;;;;;69.07;49.00;;;27.10;99.90;;;;;;5068689;28;20025;-66
2022/06/18 00:06:55;;;;;;;68.05;48.42;;;27.20;99.90;;;;;;5067647;28;20027;-66
2022/06/18 00:09:28;;;;;;;63.97;45.70;;;27.10;99.90;;;;;;5057920;28;20056;-66
2022/06/18 00:14:31;;;;;;;75.00;46.65;;;27.30;99.90;;;;;;5058246;28;20017;-65
2022/06/18 00:16:58;;;;;;;86.00;50.15;;;27.30;99.90;;;;;;5068391;28;20096;-67
2022/06/18 00:19:24;;;;;;;89.03;57.50;;;27.30;99.90;;;;;;5068269;28;20021;-66
2022/06/18 00:21:51;;;;;;;93.55;59.90;;;27.40;99.90;;;;;;5070300;28;20502;-66
2022/06/18 00:24:20;;;;;;;79.72;52.80;;;27.30;99.90;;;;;;5072674;28;20032;-65
2022/06/18 00:26:47;;;;;;;69.75;49.15;;;27.30;99.90;;;;;;5072924;28;20028;-66
2022/06/18 00:29:17;;;;;;;51.95;39.05;;;27.30;99.90;;;;;;5071638;28;20383;-66
2022/06/18 00:31:44;;;;;;;52.67;35.45;;;27.30;99.90;;;;;;5072193;28;20127;-67
2022/06/18 00:34:12;;;;;;;50.85;33.42;;;27.30;99.90;;;;;;5072290;28;20059;-65
2022/06/18 00:36:43;;;;;;;44.78;35.13;;;27.30;99.90;;;;;;5073172;28;20407;-66
2022/06/18 00:39:13;;;;;;;56.40;39.15;;;27.30;99.90;;;;;;5075145;28;20479;-67
2022/06/18 00:41:42;;;;;;;60.13;39.40;;;27.20;99.90;;;;;;5073474;28;20478;-66
2022/06/18 00:44:20;;;;;;;61.92;41.95;;;27.20;99.90;;;;;;5075405;28;20082;-66
2022/06/18 00:46:55;;;;;;;52.60;37.95;;;27.30;99.90;;;;;;5074461;28;20474;-66
2022/06/18 00:49:29;;;;;;;54.33;38.10;;;27.20;99.90;;;;;;5075429;28;20091;-66
2022/06/18 00:52:10;;;;;;;46.15;34.88;;;27.30;99.90;;;;;;5074400;28;20024;-68
2022/06/18 00:54:50;;;;;;;93.97;40.23;;;27.30;99.90;;;;;;5071160;28;20020;-66
2022/06/18 00:57:39;;;;;;;68.22;42.08;;;27.30;99.90;;;;;;5068647;28;20467;-65
2022/06/18 01:00:28;;;;;;;65.65;40.35;;;27.40;99.90;;;;;;5071370;28;20098;-66
2022/06/18 01:02:56;;;;;;;56.63;39.40;;;27.50;99.90;;;;;;5059738;28;20029;-66
2022/06/18 01:05:27;;;;;;;63.90;45.45;;;27.60;99.90;;;;;;5076851;28;20024;-67
2022/06/18 01:08:00;;;;;;;79.85;55.90;;;27.70;99.90;;;;;;5076304;28;20020;-66
2022/06/18 01:10:33;;;;;;;59.00;44.85;;;27.80;99.90;;;;;;5070552;28;20618;-66
2022/06/18 01:13:04;;;;;;;62.75;41.28;;;27.80;99.90;;;;;;5071511;28;20029;-65
2022/06/18 01:15:32;;;;;;;64.13;39.83;;;27.70;99.90;;;;;;5070646;28;20525;-64
2022/06/18 01:18:01;;;;;;;113.72;86.55;;;27.80;99.90;;;;;;5075705;28;20028;-65
2022/06/18 01:20:28;;;;;;;62.75;40.40;;;27.80;99.90;;;;;;5071380;28;20021;-66
2022/06/18 01:23:01;;;;;;;57.13;38.95;;;27.80;99.90;;;;;;5072732;28;20024;-65
2022/06/18 01:25:30;;;;;;;53.08;37.72;;;27.90;99.90;;;;;;5074718;28;20535;-66
2022/06/18 01:27:58;;;;;;;53.45;37.47;;;28.00;99.90;;;;;;5070509;28;20025;-66
2022/06/18 01:30:30;;;;;;;50.75;36.10;;;27.90;99.90;;;;;;5073182;28;20052;-66
2022/06/18 01:32:58;;;;;;;45.80;33.20;;;28.00;99.90;;;;;;5075044;28;20053;-65
2022/06/18 01:35:25;;;;;;;50.67;33.33;;;28.00;99.90;;;;;;5072097;28;20386;-63
2022/06/18 01:37:52;;;;;;;54.08;35.50;;;28.00;99.90;;;;;;5074952;28;20382;-64
2022/06/18 01:40:28;;;;;;;46.58;33.72;;;28.00;99.90;;;;;;5070125;28;20020;-65
2022/06/18 01:42:59;;;;;;;48.35;33.85;;;28.10;99.90;;;;;;5069693;28;20047;-66
2022/06/18 01:45:32;;;;;;;46.50;32.97;;;28.10;99.90;;;;;;5071662;28;20024;-66
2022/06/18 01:48:06;;;;;;;55.65;37.58;;;28.10;99.90;;;;;;5072289;28;20023;-65
2022/06/18 01:50:38;;;;;;;49.67;32.95;;;28.10;99.90;;;;;;5069355;28;20451;-67
2022/06/18 01:53:13;;;;;;;33.28;23.70;;;28.30;99.90;;;;;;5067206;28;20029;-66
2022/06/18 01:55:54;;;;;;;32.90;23.02;;;28.50;99.90;;;;;;5074211;28;20036;-65
2022/06/18 01:58:31;;;;;;;38.67;24.55;;;28.60;99.90;;;;;;5069717;28;20467;-65
2022/06/18 02:01:00;;;;;;;34.80;23.80;;;28.60;99.90;;;;;;5072232;28;20024;-66
2022/06/18 02:03:27;;;;;;;60.58;38.47;;;28.60;99.90;;;;;;5069770;28;20392;-65
2022/06/18 02:05:54;;;;;;;32.58;22.92;;;28.60;99.90;;;;;;5068233;28;20060;-64
2022/06/18 02:08:21;;;;;;;37.25;23.95;;;28.70;99.90;;;;;;5068703;28;20111;-64
2022/06/18 02:10:50;;;;;;;50.05;32.05;;;28.80;99.90;;;;;;5070104;28;20475;-66
2022/06/18 02:13:18;;;;;;;37.67;22.02;;;28.90;99.90;;;;;;5071345;28;20024;-66
2022/06/18 02:15:46;;;;;;;42.78;18.63;;;29.00;99.90;;;;;;5074934;28;20028;-65
2022/06/18 02:18:15;;;;;;;24.27;15.23;;;29.00;99.90;;;;;;5069458;28;20626;-65
2022/06/18 02:20:50;;;;;;;31.55;23.52;;;29.10;99.90;;;;;;5070469;28;20029;-66
2022/06/18 02:23:18;;;;;;;41.22;26.75;;;29.20;99.90;;;;;;5064986;28;20471;-66
2022/06/18 02:25:45;;;;;;;36.38;22.25;;;29.20;99.90;;;;;;5068349;28;20433;-65
2022/06/18 02:28:16;;;;;;;27.23;18.73;;;29.10;99.90;;;;;;5073675;28;20416;-66
2022/06/18 02:30:43;;;;;;;25.27;13.63;;;29.00;99.90;;;;;;5070997;28;20056;-65
2022/06/18 02:33:15;;;;;;;19.38;13.25;;;29.10;99.90;;;;;;5070764;28;20029;-66
2022/06/18 02:35:42;;;;;;;20.33;13.52;;;29.10;99.90;;;;;;5071209;28;20224;-66
2022/06/18 02:38:17;;;;;;;15.77;10.38;;;29.10;99.90;;;;;;5072720;28;20029;-67
2022/06/18 02:40:44;;;;;;;14.77;8.77;;;29.10;99.90;;;;;;5072574;28;20044;-66
2022/06/18 02:43:12;;;;;;;37.80;23.60;;;29.10;99.90;;;;;;5071343;28;20055;-64
2022/06/18 02:45:41;;;;;;;24.98;14.93;;;29.30;99.90;;;;;;5075054;28;20082;-65
2022/06/18 02:48:09;;;;;;;22.67;14.27;;;29.30;99.90;;;;;;5077385;28;20104;-65
2022/06/18 02:50:39;;;;;;;13.55;10.05;;;29.40;99.90;;;;;;5077135;28;20020;-66
2022/06/18 02:53:11;;;;;;;17.73;12.00;;;29.40;99.90;;;;;;5075811;28;20386;-65
2022/06/18 02:55:42;;;;;;;15.18;11.10;;;29.60;99.90;;;;;;5070535;28;20025;-66
2022/06/18 02:58:29;;;;;;;22.55;10.98;;;29.70;99.90;;;;;;5078045;28;20363;-67
2022/06/18 03:01:04;;;;;;;23.77;12.65;;;29.70;99.90;;;;;;5084246;28;20025;-66
2022/06/18 03:03:34;;;;;;;25.83;15.05;;;29.80;99.90;;;;;;5079870;28;20025;-65
2022/06/18 03:06:02;;;;;;;22.25;14.10;;;29.70;99.90;;;;;;5073830;28;20371;-66
2022/06/18 03:08:31;;;;;;;26.88;15.23;;;29.70;99.90;;;;;;5073981;28;20021;-66
2022/06/18 03:13:30;;;;;;;32.92;21.30;;;29.90;99.90;;;;;;5090502;28;20024;-67
2022/06/18 03:15:57;;;;;;;43.53;25.52;;;30.00;99.90;;;;;;5086603;28;20031;-64
2022/06/18 03:18:29;;;;;;;34.67;23.73;;;30.10;99.90;;;;;;5076914;28;20028;-64
2022/06/18 03:20:55;;;;;;;37.90;24.60;;;30.10;99.90;;;;;;5072143;28;20028;-67
2022/06/18 03:23:23;;;;;;;41.75;25.50;;;30.20;99.90;;;;;;5078108;28;20103;-67
2022/06/18 03:25:51;;;;;;;38.97;23.42;;;30.20;99.90;;;;;;5082452;28;20052;-65
2022/06/18 03:28:20;;;;;;;32.28;20.00;;;30.20;99.90;;;;;;5080791;28;20119;-66
2022/06/18 03:30:46;;;;;;;35.75;19.48;;;30.10;99.90;;;;;;5077940;28;20056;-66
2022/06/18 03:33:13;;;;;;;28.58;17.38;;;30.10;99.90;;;;;;5075704;28;20036;-65
2022/06/18 03:35:45;;;;;;;35.30;18.20;;;30.10;99.90;;;;;;5075562;28;20398;-65
2022/06/18 03:38:13;;;;;;;25.63;16.17;;;30.30;99.90;;;;;;5073186;28;20089;-66
2022/06/18 03:40:40;;;;;;;26.25;16.60;;;30.40;99.90;;;;;;5070166;28;20439;-67
2022/06/18 03:43:07;;;;;;;29.30;16.77;;;30.50;99.90;;;;;;5073251;28;20021;-67
2022/06/18 03:45:42;;;;;;;29.73;16.17;;;30.50;99.90;;;;;;5069456;28;20025;-66
2022/06/18 03:48:17;;;;;;;25.17;15.65;;;30.70;99.90;;;;;;5068536;28;20104;-63
2022/06/18 03:50:44;;;;;;;21.92;13.18;;;30.70;99.90;;;;;;5068451;28;20102;-69
2022/06/18 03:53:12;;;;;;;21.08;14.05;;;30.70;99.90;;;;;;5069492;28;20067;-67
2022/06/18 03:55:39;;;;;;;20.77;13.68;;;30.70;99.90;;;;;;5070151;28;20035;-67
2022/06/18 03:58:06;;;;;;;16.30;10.90;;;31.00;99.90;;;;;;5071581;28;20052;-66
2022/06/18 04:00:33;;;;;;;13.70;9.63;;;31.00;99.90;;;;;;5069730;28;20123;-68
2022/06/18 04:02:59;;;;;;;15.50;10.40;;;30.90;99.90;;;;;;5072585;28;20063;-67
2022/06/18 04:05:27;;;;;;;17.77;10.70;;;30.90;99.90;;;;;;5072954;28;20070;-66
2022/06/18 04:07:54;;;;;;;22.25;13.07;;;30.90;99.90;;;;;;5070641;28;20077;-67
2022/06/18 04:10:21;;;;;;;14.23;10.23;;;31.00;99.90;;;;;;5069930;28;20078;-66
2022/06/18 04:12:49;;;;;;;12.55;8.52;;;31.00;99.90;;;;;;5074823;28;20028;-65
2022/06/18 04:15:15;;;;;;;16.27;8.77;;;31.00;99.20;;;;;;5076744;28;20051;-64
2022/06/18 04:17:43;;;;;;;14.00;8.95;;;31.10;99.70;;;;;;5074853;28;20036;-65
2022/06/18 04:20:23;;;;;;;10.88;8.02;;;31.10;98.10;;;;;;5075557;28;20068;-64
2022/06/18 04:22:50;;;;;;;12.70;8.57;;;31.00;99.90;;;;;;5076266;28;20025;-65
2022/06/18 04:25:18;;;;;;;12.43;7.75;;;31.10;99.90;;;;;;5076249;28;20017;-64
2022/06/18 04:27:45;;;;;;;14.20;7.43;;;31.20;99.90;;;;;;5075102;28;20122;-65
2022/06/18 04:30:13;;;;;;;14.00;8.27;;;31.30;99.60;;;;;;5074010;28;20047;-65
2022/06/18 04:32:40;;;;;;;13.23;7.25;;;31.40;99.20;;;;;;5076015;28;20032;-66
2022/06/18 04:35:10;;;;;;;19.45;10.43;;;31.30;98.20;;;;;;5072746;28;20111;-66
2022/06/18 04:37:38;;;;;;;15.20;9.32;;;31.40;98.80;;;;;;5076168;28;20106;-65
2022/06/18 04:40:06;;;;;;;13.18;8.80;;;31.30;99.60;;;;;;5076884;28;20025;-64
2022/06/18 04:42:33;;;;;;;18.15;8.93;;;31.30;99.20;;;;;;5075546;28;20060;-66
2022/06/18 04:45:00;;;;;;;16.00;8.10;;;31.30;98.40;;;;;;5077634;28;20024;-65
2022/06/18 04:47:26;;;;;;;10.95;7.70;;;31.40;98.90;;;;;;5075642;28;20027;-65
2022/06/18 04:49:53;;;;;;;15.20;7.93;;;31.30;97.90;;;;;;5074861;28;20437;-65
2022/06/18 04:52:20;;;;;;;22.83;14.52;;;31.40;97.90;;;;;;5076624;28;20028;-64
2022/06/18 04:54:47;;;;;;;15.60;11.13;;;31.40;97.10;;;;;;5076038;28;20021;-63
2022/06/18 04:57:13;;;;;;;15.90;8.15;;;31.40;95.80;;;;;;5073990;28;20028;-65
2022/06/18 04:59:41;;;;;;;20.92;11.82;;;31.40;95.20;;;;;;5075837;28;20115;-65
2022/06/18 05:02:19;;;;;;;12.68;7.97;;;31.40;97.40;;;;;;5076191;28;20443;-65
2022/06/18 05:04:46;;;;;;;8.85;6.22;;;31.40;96.10;;;;;;5073783;28;20024;-64
2022/06/18 05:07:12;;;;;;;8.07;5.35;;;31.40;94.80;;;;;;5068782;28;20374;-62
2022/06/18 05:09:39;;;;;;;20.80;12.95;;;31.40;95.00;;;;;;5074337;28;20025;-65
2022/06/18 05:12:06;;;;;;;9.82;7.72;;;31.40;94.50;;;;;;5074469;28;20509;-64
2022/06/18 05:14:33;;;;;;;11.95;6.13;;;31.40;94.80;;;;;;5073474;28;20032;-63
2022/06/18 05:17:02;;;;;;;8.23;6.10;;;31.40;95.60;;;;;;5064993;28;20021;-64
2022/06/18 05:19:33;;;;;;;11.20;5.20;;;31.60;94.00;;;;;;5068870;28;20054;-65
2022/06/18 05:22:00;;;;;;;32.28;24.42;;;31.50;94.00;;;;;;5055832;28;20028;-65
2022/06/18 05:24:27;;;;;;;10.50;6.13;;;31.50;95.20;;;;;;5071017;28;20021;-64
2022/06/18 05:26:58;;;;;;;12.45;4.97;;;31.50;92.70;;;;;;5072508;28;20057;-62
2022/06/18 05:29:25;;;;;;;9.00;4.30;;;31.50;93.30;;;;;;5072274;28;20096;-64
2022/06/18 05:31:52;;;;;;;9.00;4.82;;;31.50;91.80;;;;;;5074821;28;20047;-64
2022/06/18 05:34:18;;;;;;;7.93;4.45;;;31.50;93.20;;;;;;5073456;28;20033;-64
2022/06/18 05:36:45;;;;;;;11.52;6.97;;;31.50;92.70;;;;;;5074849;28;20162;-64
2022/06/18 05:39:17;;;;;;;13.75;5.00;;;31.50;93.50;;;;;;5073774;28;20433;-65
2022/06/18 05:41:43;;;;;;;8.73;4.57;;;31.50;92.70;;;;;;5070940;28;20035;-66
2022/06/18 05:44:10;;;;;;;7.30;4.72;;;31.60;92.80;;;;;;5073140;28;20081;-65
2022/06/18 05:46:37;;;;;;;7.00;5.07;;;31.50;93.70;;;;;;5074938;28;20023;-65
2022/06/18 05:49:04;;;;;;;9.63;5.43;;;31.50;92.90;;;;;;5074405;28;20124;-64
2022/06/18 05:51:30;;;;;;;8.25;4.28;;;31.50;93.30;;;;;;5073464;28;20047;-64
2022/06/18 05:53:57;;;;;;;7.93;4.70;;;31.50;93.50;;;;;;5074108;28;20016;-63
2022/06/18 05:56:24;;;;;;;11.25;5.25;;;31.60;93.80;;;;;;5073996;28;20059;-64
2022/06/18 05:58:50;;;;;;;7.00;4.28;;;31.60;93.10;;;;;;5072272;28;20105;-62
2022/06/18 06:01:17;;;;;;;7.75;4.82;;;31.60;92.70;;;;;;5072165;28;20077;-67
2022/06/18 06:03:44;;;;;;;12.75;4.90;;;31.60;91.10;;;;;;5073395;28;20078;-64
2022/06/18 06:06:10;;;;;;;9.75;5.35;;;31.70;91.90;;;;;;5073173;28;20016;-62
2022/06/18 06:08:37;;;;;;;8.35;5.82;;;31.70;92.60;;;;;;5074894;28;20024;-62
2022/06/18 06:13:33;;;;;;;91.15;51.22;;;31.70;92.50;;;;;;5074298;28;20024;-62
2022/06/18 06:16:00;;;;;;;33.00;18.23;;;31.70;91.60;;;;;;5073657;28;20028;-63
2022/06/18 06:18:29;;;;;;;15.88;8.77;;;31.70;91.60;;;;;;5071630;28;20029;-64
2022/06/18 06:20:56;;;;;;;39.08;27.00;;;31.70;92.40;;;;;;5073615;28;20039;-65
2022/06/18 06:23:23;;;;;;;38.88;29.10;;;31.70;91.70;;;;;;5073267;28;20031;-63
2022/06/18 06:25:50;;;;;;;38.05;28.13;;;31.70;91.20;;;;;;5072742;28;20121;-64
2022/06/18 06:28:22;;;;;;;125.82;86.10;;;31.70;91.80;;;;;;5069046;28;20100;-64
2022/06/18 06:30:50;;;;;;;14.23;8.65;;;31.80;91.70;;;;;;5071564;28;20075;-63
2022/06/18 06:33:18;;;;;;;28.98;20.00;;;31.80;91.90;;;;;;5073825;28;20080;-64
2022/06/18 06:35:45;;;;;;;52.25;35.97;;;31.90;92.60;;;;;;5073758;28;20025;-61
2022/06/18 06:38:13;;;;;;;11.27;7.75;;;31.90;93.10;;;;;;5074169;28;20483;-60
2022/06/18 06:40:43;;;;;;;31.73;17.92;;;31.80;92.60;;;;;;5080618;28;20059;-63
2022/06/18 06:43:15;;;;;;;19.13;9.10;;;31.90;92.90;;;;;;5073701;28;20108;-62
2022/06/18 06:45:42;;;;;;;16.42;9.25;;;31.90;92.50;;;;;;5073227;28;20095;-63
2022/06/18 06:48:08;;;;;;;12.57;8.60;;;31.90;92.70;;;;;;5071044;28;20028;-64
2022/06/18 06:50:35;;;;;;;12.55;8.23;;;31.90;92.80;;;;;;5073118;28;20336;-64
2022/06/18 06:53:02;;;;;;;10.73;6.70;;;32.00;92.30;;;;;;5070601;28;20021;-63
2022/06/18 06:58:04;;;;;;;9.98;6.47;;;31.90;91.90;;;;;;5069279;28;20047;-64
2022/06/18 07:00:33;;;;;;;8.10;5.82;;;32.00;92.80;;;;;;5069424;28;20020;-62
2022/06/18 07:02:59;;;;;;;16.23;9.90;;;32.00;92.20;;;;;;5066227;28;20500;-62
2022/06/18 07:05:26;;;;;;;20.67;14.25;;;32.00;92.20;;;;;;5069476;28;20024;-63
2022/06/18 07:07:53;;;;;;;11.25;7.57;;;32.00;92.20;;;;;;5072612;28;20016;-63
2022/06/18 07:10:19;;;;;;;6.88;4.28;;;32.10;90.90;;;;;;5066129;28;20025;-63
2022/06/18 07:12:46;;;;;;;8.93;4.43;;;32.20;89.00;;;;;;5066741;28;20029;-62
2022/06/18 07:15:13;;;;;;;8.18;5.47;;;32.20;88.60;;;;;;5068611;28;20032;-67
2022/06/18 07:17:42;;;;;;;10.05;5.32;;;32.30;88.20;;;;;;5072714;28;20043;-67
2022/06/18 07:20:14;;;;;;;8.60;5.05;;;32.30;89.00;;;;;;5069196;28;20089;-67
2022/06/18 07:22:41;;;;;;;10.10;7.22;;;32.50;89.90;;;;;;5070008;28;20020;-62
2022/06/18 07:25:08;;;;;;;8.45;6.03;;;32.60;88.90;;;;;;5070947;28;20031;-63
2022/06/18 07:27:36;;;;;;;7.93;5.03;;;32.60;84.50;;;;;;5069196;28;20028;-61
2022/06/18 07:30:05;;;;;;;17.75;11.05;;;32.60;84.80;;;;;;5067353;28;20062;-62
2022/06/18 07:32:32;;;;;;;35.53;23.63;;;32.60;85.10;;;;;;5070124;28;20021;-62
2022/06/18 07:34:59;;;;;;;8.57;6.65;;;32.70;85.80;;;;;;5070087;28;20098;-63
2022/06/18 07:37:28;;;;;;;27.70;21.65;;;32.70;86.70;;;;;;5072488;28;20020;-62
2022/06/18 07:39:54;;;;;;;23.88;18.05;;;32.70;82.80;;;;;;5071894;28;20032;-63
2022/06/18 07:42:22;;;;;;;12.63;8.98;;;32.70;84.50;;;;;;5067700;28;20055;-62
2022/06/18 07:44:49;;;;;;;8.18;5.45;;;32.70;80.50;;;;;;5072618;28;20021;-62
2022/06/18 07:47:18;;;;;;;5.43;4.57;;;32.70;79.90;;;;;;5064443;28;20032;-64
2022/06/18 07:49:52;;;;;;;8.98;6.03;;;32.60;77.50;;;;;;5070410;28;20078;-64
2022/06/18 07:52:18;;;;;;;9.65;7.22;;;32.60;79.80;;;;;;5074355;28;20016;-65
2022/06/18 07:54:45;;;;;;;12.57;5.75;;;32.60;82.80;;;;;;5084721;28;20477;-65
2022/06/18 07:57:12;;;;;;;6.47;4.63;;;32.70;82.00;;;;;;5083016;28;20028;-65
2022/06/18 07:59:39;;;;;;;9.00;5.13;;;32.70;81.10;;;;;;5082564;28;20029;-65
2022/06/18 08:02:09;;;;;;;7.97;5.18;;;32.80;82.10;;;;;;5087850;28;20053;-65
2022/06/18 08:04:36;;;;;;;7.55;5.65;;;32.90;82.40;;;;;;5086922;28;20105;-65
2022/06/18 08:07:03;;;;;;;11.60;4.85;;;32.90;81.20;;;;;;5082738;28;20486;-65
2022/06/18 08:09:29;;;;;;;10.18;5.15;;;33.00;79.20;;;;;;5082702;28;20028;-64
2022/06/18 08:11:56;;;;;;;7.05;5.28;;;33.00;80.90;;;;;;5076413;28;20031;-63
2022/06/18 08:14:23;;;;;;;10.38;4.50;;;33.10;78.10;;;;;;5085881;28;20505;-63
2022/06/18 08:16:49;;;;;;;5.00;4.18;;;33.20;78.10;;;;;;5026768;28;20089;-63
2022/06/18 08:19:16;;;;;;;8.82;6.25;;;33.40;78.20;;;;;;5076564;28;20459;-63
2022/06/18 08:21:44;;;;;;;8.50;6.03;;;33.40;77.80;;;;;;5072480;28;20483;-63
2022/06/18 08:24:15;;;;;;;11.30;6.38;;;33.40;79.90;;;;;;5072618;28;20060;-64
2022/06/18 08:26:43;;;;;;;12.02;6.60;;;33.30;77.50;;;;;;5070318;28;20558;-64
2022/06/18 08:29:14;;;;;;;22.95;8.82;;;33.20;78.60;;;;;;5062358;28;20041;-64
2022/06/18 08:31:41;;;;;;;17.92;9.88;;;33.10;79.00;;;;;;5071999;28;20060;-65
2022/06/18 08:34:07;;;;;;;12.52;7.25;;;33.00;79.80;;;;;;5072903;28;20471;-64
2022/06/18 08:36:35;;;;;;;15.50;9.35;;;32.80;80.40;;;;;;5072136;28;20036;-64
2022/06/18 08:39:02;;;;;;;10.77;5.65;;;32.70;78.20;;;;;;5072507;28;20036;-65
2022/06/18 08:42:09;;;;;;;10.88;7.55;;;32.80;75.40;;;;;;5071499;28;20024;-65
2022/06/18 08:45:04;;;;;;;14.20;10.05;;;32.80;77.50;;;;;;5061683;28;20078;-65
2022/06/18 08:47:52;;;;;;;15.45;8.75;;;33.00;78.40;;;;;;5071360;28;20436;-64
2022/06/18 08:50:52;;;;;;;15.15;7.18;;;33.00;79.00;;;;;;5067338;28;20112;-64
2022/06/18 08:53:23;;;;;;;10.75;6.53;;;33.10;74.80;;;;;;5064785;28;20412;-64
2022/06/18 08:55:53;;;;;;;11.55;7.03;;;33.10;76.80;;;;;;5073790;28;20204;-63
2022/06/18 08:58:21;;;;;;;13.80;9.70;;;33.10;76.20;;;;;;5074090;28;20052;-65
2022/06/18 09:01:05;;;;;;;17.90;11.52;;;33.20;75.80;;;;;;5071346;28;20034;-64
2022/06/18 09:03:52;;;;;;;20.02;11.10;;;33.20;78.70;;;;;;5072857;28;20033;-64
2022/06/18 09:06:39;;;;;;;13.95;8.25;;;33.30;77.80;;;;;;5075989;28;20024;-64
2022/06/18 09:09:21;;;;;;;9.57;6.47;;;33.20;78.60;;;;;;5064242;28;20364;-65
2022/06/18 09:11:58;;;;;;;12.32;5.53;;;33.20;78.60;;;;;;5067265;28;20036;-65
2022/06/18 09:14:46;;;;;;;8.20;5.53;;;33.10;78.70;;;;;;5071595;28;20081;-64
2022/06/18 09:17:33;;;;;;;16.27;8.43;;;33.00;77.40;;;;;;5073038;28;20031;-65
2022/06/18 09:20:14;;;;;;;21.42;14.77;;;33.00;76.90;;;;;;5066441;28;20506;-65
2022/06/18 09:22:48;;;;;;;13.73;9.00;;;33.00;79.80;;;;;;5074536;28;20028;-67
2022/06/18 09:25:17;;;;;;;13.85;9.35;;;32.90;80.10;;;;;;5071219;28;20108;-64
2022/06/18 09:27:54;;;;;;;14.43;9.15;;;32.90;78.90;;;;;;5072449;28;20054;-66
2022/06/18 09:30:30;;;;;;;10.52;6.93;;;32.90;80.80;;;;;;5069263;28;20391;-65
2022/06/18 09:33:10;;;;;;;13.80;7.03;;;32.80;81.50;;;;;;5068227;28;20342;-64
2022/06/18 09:35:53;;;;;;;25.67;17.30;;;32.90;81.40;;;;;;5068520;28;20101;-65
2022/06/18 09:38:23;;;;;;;23.10;17.85;;;32.80;79.20;;;;;;5068022;28;20448;-66
2022/06/18 09:40:54;;;;;;;17.58;9.82;;;32.80;80.00;;;;;;5071902;28;20040;-66
2022/06/18 09:43:37;;;;;;;7.90;5.38;;;32.80;80.90;;;;;;5072083;28;20425;-65
2022/06/18 09:46:10;;;;;;;31.77;20.35;;;32.70;79.60;;;;;;5072538;28;20027;-64
2022/06/18 09:48:38;;;;;;;38.53;25.77;;;32.70;79.10;;;;;;5070840;28;20838;-67
2022/06/18 09:51:19;;;;;;;24.67;15.00;;;32.60;80.10;;;;;;5072136;28;20517;-66
2022/06/18 09:53:45;;;;;;;14.55;8.48;;;32.60;80.50;;;;;;5059897;28;20403;-66
2022/06/18 09:56:17;;;;;;;10.38;7.07;;;32.60;80.10;;;;;;5072666;28;20035;-71
2022/06/18 09:58:52;;;;;;;13.40;7.47;;;32.60;81.50;;;;;;5068370;28;20034;-72
2022/06/18 10:01:42;;;;;;;36.17;19.08;;;32.50;82.70;;;;;;5069606;28;20032;-72
2022/06/18 10:07:00;;;;;;;12.73;8.20;;;32.60;82.10;;;;;;5073232;28;20025;-69
2022/06/18 10:09:39;;;;;;;14.27;8.77;;;32.60;80.30;;;;;;5072294;28;20024;-67
2022/06/18 10:12:18;;;;;;;14.57;8.65;;;32.50;81.30;;;;;;5073713;28;20383;-74
2022/06/18 10:14:44;;;;;;;11.70;7.95;;;32.60;82.40;;;;;;5055118;28;20382;-70
2022/06/18 10:17:31;;;;;;;15.45;8.07;;;32.50;81.80;;;;;;5073395;28;20490;-70
2022/06/18 10:20:10;;;;;;;14.38;8.77;;;32.50;80.80;;;;;;5054201;28;20107;-69
2022/06/18 10:22:58;;;;;;;14.10;9.13;;;32.50;83.70;;;;;;5054498;28;20044;-72
2022/06/18 10:25:45;;;;;;;15.20;8.43;;;32.40;82.50;;;;;;5069924;28;20424;-69
2022/06/18 10:28:25;;;;;;;69.97;35.53;;;32.40;81.90;;;;;;5066158;28;20052;-69
2022/06/18 10:31:01;;;;;;;61.15;29.52;;;32.40;81.90;;;;;;5072539;28;20049;-68
2022/06/18 10:33:42;;;;;;;50.97;29.05;;;32.20;84.80;;;;;;5067884;28;20021;-69
2022/06/18 10:36:08;;;;;;;70.45;45.83;;;32.20;85.80;;;;;;5071616;28;20028;-71
2022/06/18 10:38:52;;;;;;;97.18;53.25;;;32.10;86.40;;;;;;5071143;28;20107;-69
2022/06/18 10:41:26;;;;;;;105.18;63.58;;;32.10;87.50;;;;;;5070942;28;20027;-71
2022/06/18 10:44:24;;;;;;;158.18;105.25;;;32.00;87.20;;;;;;5067798;28;20452;-69
2022/06/18 10:47:12;;;;;;;149.52;102.65;;;32.10;87.70;;;;;;5070695;28;20108;-69
2022/06/18 10:49:38;;;;;;;50.47;27.90;;;32.00;88.00;;;;;;5069816;28;20015;-69
2022/06/18 10:52:15;;;;;;;74.85;39.83;;;32.00;88.50;;;;;;5073179;28;20024;-65
2022/06/18 10:54:42;;;;;;;54.05;32.47;;;31.90;88.90;;;;;;5071600;28;20015;-65
2022/06/18 10:57:24;;;;;;;57.50;30.17;;;31.80;90.00;;;;;;5072922;28;20017;-65
2022/06/18 10:59:50;;;;;;;108.40;71.25;;;31.80;90.00;;;;;;5071845;28;20020;-66
2022/06/18 11:02:27;;;;;;;104.45;67.03;;;31.80;90.10;;;;;;5072893;28;20024;-66
2022/06/18 11:04:57;;;;;;;132.98;83.03;;;31.80;90.40;;;;;;5070346;28;20028;-64
2022/06/18 11:07:27;;;;;;;175.32;110.72;;;31.70;90.70;;;;;;5071545;28;20074;-66
2022/06/18 11:09:58;;;;;;;570.22;435.05;;;31.60;91.40;;;;;;5070716;28;20437;-65
2022/06/18 11:12:31;;;;;;;420.60;313.27;;;31.60;91.40;;;;;;5067073;28;20036;-67
2022/06/18 11:15:04;;;;;;;173.75;114.97;;;31.60;91.40;;;;;;5066900;28;20037;-65
2022/06/18 11:17:40;;;;;;;132.68;87.63;;;31.60;91.50;;;;;;5066961;28;20493;-66
2022/06/18 11:20:15;;;;;;;679.83;524.22;;;31.60;91.60;;;;;;5067512;28;20085;-65
2022/06/18 11:22:44;;;;;;;123.82;75.68;;;31.50;91.40;;;;;;5067972;28;20017;-65
2022/06/18 11:25:36;;;;;;;256.33;161.48;;;31.50;91.50;;;;;;5070709;28;20025;-65
2022/06/18 11:28:15;;;;;;;177.40;108.93;;;31.50;91.30;;;;;;5072216;28;20028;-65
2022/06/18 11:30:46;;;;;;;124.88;72.68;;;31.50;91.60;;;;;;5072085;28;20517;-67
2022/06/18 11:33:29;;;;;;;107.53;59.47;;;31.50;91.20;;;;;;5071792;28;20474;-65
2022/06/18 11:35:56;;;;;;;58.60;32.10;;;31.50;91.20;;;;;;5072197;28;20428;-65
2022/06/18 11:38:31;;;;;;;320.30;259.25;;;31.40;90.70;;;;;;5069441;28;20035;-65
2022/06/18 11:41:08;;;;;;;367.83;281.15;;;31.40;91.30;;;;;;5071828;28;20027;-67
2022/06/18 11:43:44;;;;;;;186.07;116.05;;;31.40;90.10;;;;;;5069756;28;20020;-65
2022/06/18 11:46:21;;;;;;;99.50;54.28;;;31.40;87.40;;;;;;5070494;28;20024;-64
2022/06/18 11:48:52;;;;;;;94.65;53.75;;;31.40;87.50;;;;;;5066827;28;20132;-64
2022/06/18 11:51:29;;;;;;;72.77;40.47;;;31.30;87.40;;;;;;5063696;28;20021;-65
2022/06/18 11:54:36;;;;;;;111.20;61.75;;;31.30;87.40;;;;;;5068999;28;20047;-64
2022/06/18 11:57:10;;;;;;;75.15;41.80;;;31.20;89.60;;;;;;5003994;28;20403;-64
2022/06/18 11:59:40;;;;;;;54.92;27.60;;;31.00;90.70;;;;;;4994249;28;20085;-64
2022/06/18 12:02:17;;;;;;;48.15;26.73;;;31.00;91.30;;;;;;4996146;28;20034;-65
2022/06/18 12:04:49;;;;;;;51.60;27.63;;;30.80;91.30;;;;;;5004243;28;20029;-64
2022/06/18 12:07:38;;;;;;;44.42;25.65;;;30.70;91.70;;;;;;5003590;28;20081;-63
2022/06/18 12:10:10;;;;;;;33.90;19.92;;;30.60;91.90;;;;;;5007214;28;20429;-65
2022/06/18 12:12:52;;;;;;;28.23;15.77;;;30.60;92.20;;;;;;5007875;28;20037;-65
2022/06/18 12:15:41;;;;;;;48.90;31.83;;;30.50;92.60;;;;;;5005947;28;20061;-65
2022/06/18 12:18:14;;;;;;;67.93;48.97;;;30.50;92.90;;;;;;5003819;28;20036;-63
2022/06/18 12:20:49;;;;;;;49.85;35.03;;;30.50;93.10;;;;;;5007486;28;20034;-67
2022/06/18 12:23:21;;;;;;;134.88;96.32;;;30.40;93.50;;;;;;5007062;28;20519;-64
2022/06/18 12:26:07;;;;;;;;;;;30.50;94.40;;;;;;5009099;28;20037;-64
2022/06/18 12:28:55;;;;;;;46.85;26.35;;;30.50;94.00;;;;;;5001095;28;20004;-63
2022/06/18 12:31:29;;;;;;;51.13;27.48;;;30.40;94.40;;;;;;4953394;29;20047;-65
2022/06/18 12:34:27;;;;;;;40.60;23.33;;;30.40;95.30;;;;;;4962798;28;20040;-64
2022/06/18 12:36:59;;;;;;;30.52;19.20;;;30.40;95.00;;;;;;4991294;28;20092;-65
2022/06/18 12:39:47;;;;;;;75.63;44.83;;;30.40;96.30;;;;;;4986142;28;20026;-65
2022/06/18 12:42:22;;;;;;;72.13;42.85;;;30.30;96.30;;;;;;4986241;28;20026;-63
2022/06/18 12:44:48;;;;;;;30.30;18.15;;;30.30;96.70;;;;;;4986747;28;20069;-65
2022/06/18 12:47:43;;;;;;;34.35;18.63;;;30.20;97.10;;;;;;4987662;28;20023;-67
2022/06/18 12:50:11;;;;;;;36.15;21.63;;;30.20;97.00;;;;;;4992828;28;20129;-65
2022/06/18 12:52:50;;;;;;;64.00;37.08;;;30.10;98.30;;;;;;4990957;28;20043;-67
2022/06/18 12:55:47;;;;;;;43.10;28.00;;;30.00;98.80;;;;;;4990820;28;20042;-66
2022/06/18 12:58:23;;;;;;;24.88;16.98;;;30.00;99.60;;;;;;4987831;28;20089;-66
2022/06/18 13:00:55;;;;;;;39.80;24.98;;;30.00;99.20;;;;;;4985870;28;20030;-65
2022/06/18 13:03:30;;;;;;;;;;;29.90;99.20;;;;;;4986756;28;20077;-66
2022/06/18 13:06:13;;;;;;;68.70;43.25;;;30.00;99.60;;;;;;4988073;28;19906;-66
2022/06/18 13:08:45;;;;;;;31.00;20.00;;;29.90;99.40;;;;;;5031820;28;20082;-65